sensor_id;sensor_type;location;lat;lon;timestamp;pressure;altitude;pressure_sealevel;temperature;humidity
40992;BME280;29633;49.168;9.848;2023-03-04T00:01:16;97321.72;;;6.81;51.28
40992;BME280;29633;49.168;9.848;2023-03-04T00:03:41;97328.75;;;6.79;51.05
40992;BME280;29633;49.168;9.848;2023-03-04T00:06:07;97332.31;;;6.76;51.21
40992;BME280;29633;49.168;9.848;2023-03-04T00:08:33;97334.13;;;6.74;51.04
40992;BME280;29633;49.168;9.848;2023-03-04T00:10:59;97331.75;;;6.71;51.12
40992;BME280;29633;49.168;9.848;2023-03-04T00:13:25;97328.69;;;6.65;51.29
40992;BME280;29633;49.168;9.848;2023-03-04T00:15:51;97332.34;;;6.61;51.22
40992;BME280;29633;49.168;9.848;2023-03-04T00:18:17;97333.41;;;6.57;51.25
40992;BME280;29633;49.168;9.848;2023-03-04T00:20:42;97332.75;;;6.53;51.27
40992;BME280;29633;49.168;9.848;2023-03-04T00:23:08;97327.97;;;6.47;51.38
40992;BME280;29633;49.168;9.848;2023-03-04T00:25:34;97326.47;;;6.43;51.44
40992;BME280;29633;49.168;9.848;2023-03-04T00:27:59;97326.47;;;6.43;51.22
40992;BME280;29633;49.168;9.848;2023-03-04T00:30:25;97333.53;;;6.39;51.28
40992;BME280;29633;49.168;9.848;2023-03-04T00:32:51;97330.19;;;6.37;51.40
40992;BME280;29633;49.168;9.848;2023-03-04T00:35:17;97336.16;;;6.38;51.31
40992;BME280;29633;49.168;9.848;2023-03-04T00:37:45;97340.75;;;6.33;51.47
40992;BME280;29633;49.168;9.848;2023-03-04T00:40:11;97339.16;;;6.30;51.43
40992;BME280;29633;49.168;9.848;2023-03-04T00:42:36;97334.91;;;6.29;51.56
40992;BME280;29633;49.168;9.848;2023-03-04T00:45:03;97335.84;;;6.28;51.37
40992;BME280;29633;49.168;9.848;2023-03-04T00:47:28;97336.03;;;6.25;51.39
40992;BME280;29633;49.168;9.848;2023-03-04T00:49:54;97328.44;;;6.22;51.50
40992;BME280;29633;49.168;9.848;2023-03-04T00:52:20;97328.63;;;6.19;51.28
40992;BME280;29633;49.168;9.848;2023-03-04T00:54:45;97321.97;;;6.15;51.45
40992;BME280;29633;49.168;9.848;2023-03-04T00:57:11;97329.78;;;6.14;51.32
40992;BME280;29633;49.168;9.848;2023-03-04T00:59:36;97328.94;;;6.13;51.55
40992;BME280;29633;49.168;9.848;2023-03-04T01:02:02;97322.13;;;6.12;51.19
40992;BME280;29633;49.168;9.848;2023-03-04T01:04:28;97326.44;;;6.12;51.48
40992;BME280;29633;49.168;9.848;2023-03-04T01:06:53;97321.28;;;6.12;51.46
40992;BME280;29633;49.168;9.848;2023-03-04T01:09:19;97318.00;;;6.10;51.56
40992;BME280;29633;49.168;9.848;2023-03-04T01:11:45;97317.09;;;6.11;51.54
40992;BME280;29633;49.168;9.848;2023-03-04T01:14:10;97318.00;;;6.10;51.55
40992;BME280;29633;49.168;9.848;2023-03-04T01:16:36;97315.50;;;6.08;51.55
40992;BME280;29633;49.168;9.848;2023-03-04T01:19:02;97319.06;;;6.06;51.51
40992;BME280;29633;49.168;9.848;2023-03-04T01:21:28;97322.72;;;6.02;51.47
40992;BME280;29633;49.168;9.848;2023-03-04T01:23:53;97314.25;;;6.00;51.54
40992;BME280;29633;49.168;9.848;2023-03-04T01:26:19;97315.16;;;5.99;51.65
40992;BME280;29633;49.168;9.848;2023-03-04T01:28:44;97311.69;;;6.00;51.84
40992;BME280;29633;49.168;9.848;2023-03-04T01:31:10;97311.84;;;5.97;51.72
40992;BME280;29633;49.168;9.848;2023-03-04T01:33:36;97303.19;;;5.98;51.72
40992;BME280;29633;49.168;9.848;2023-03-04T01:36:01;97308.19;;;6.01;51.78
40992;BME280;29633;49.168;9.848;2023-03-04T01:38:27;97307.19;;;6.03;51.80
40992;BME280;29633;49.168;9.848;2023-03-04T01:40:53;97305.28;;;6.07;51.82
40992;BME280;29633;49.168;9.848;2023-03-04T01:43:29;97297.41;;;6.10;51.68
40992;BME280;29633;49.168;9.848;2023-03-04T01:45:55;97298.91;;;6.14;51.69
40992;BME280;29633;49.168;9.848;2023-03-04T01:48:34;97293.66;;;6.15;51.50
40992;BME280;29633;49.168;9.848;2023-03-04T01:51:05;97296.09;;;6.18;51.49
40992;BME280;29633;49.168;9.848;2023-03-04T01:53:35;97295.25;;;6.18;51.62
40992;BME280;29633;49.168;9.848;2023-03-04T01:58:36;97290.50;;;6.10;51.68
40992;BME280;29633;49.168;9.848;2023-03-04T02:01:02;97290.75;;;6.06;51.83
40992;BME280;29633;49.168;9.848;2023-03-04T02:03:27;97290.81;;;6.04;51.85
40992;BME280;29633;49.168;9.848;2023-03-04T02:05:53;97295.97;;;6.04;51.72
40992;BME280;29633;49.168;9.848;2023-03-04T02:08:21;97287.44;;;6.04;51.87
40992;BME280;29633;49.168;9.848;2023-03-04T02:10:47;97285.94;;;6.00;51.86
40992;BME280;29633;49.168;9.848;2023-03-04T02:13:14;97287.59;;;6.01;51.70
40992;BME280;29633;49.168;9.848;2023-03-04T02:15:41;97284.88;;;6.04;51.76
40992;BME280;29633;49.168;9.848;2023-03-04T02:18:17;97285.84;;;6.01;51.94
40992;BME280;29633;49.168;9.848;2023-03-04T02:21:13;97286.13;;;5.97;51.96
40992;BME280;29633;49.168;9.848;2023-03-04T02:26:16;97280.63;;;5.87;52.04
40992;BME280;29633;49.168;9.848;2023-03-04T02:28:43;97276.44;;;5.84;51.92
40992;BME280;29633;49.168;9.848;2023-03-04T02:31:22;97282.41;;;5.85;52.13
40992;BME280;29633;49.168;9.848;2023-03-04T02:33:50;97281.56;;;5.86;51.98
40992;BME280;29633;49.168;9.848;2023-03-04T02:36:16;97273.72;;;5.87;52.07
40992;BME280;29633;49.168;9.848;2023-03-04T02:38:41;97277.28;;;5.85;51.84
40992;BME280;29633;49.168;9.848;2023-03-04T02:41:11;97280.81;;;5.82;52.09
40992;BME280;29633;49.168;9.848;2023-03-04T02:43:37;97274.88;;;5.82;51.92
40992;BME280;29633;49.168;9.848;2023-03-04T02:46:03;97283.56;;;5.79;51.91
40992;BME280;29633;49.168;9.848;2023-03-04T02:48:29;97277.19;;;5.71;52.04
40992;BME280;29633;49.168;9.848;2023-03-04T02:50:54;97277.59;;;5.63;52.21
40992;BME280;29633;49.168;9.848;2023-03-04T02:53:21;97276.06;;;5.59;52.17
40992;BME280;29633;49.168;9.848;2023-03-04T02:55:47;97278.88;;;5.55;52.10
40992;BME280;29633;49.168;9.848;2023-03-04T02:58:13;97269.59;;;5.52;52.03
40992;BME280;29633;49.168;9.848;2023-03-04T03:00:39;97276.53;;;5.50;52.23
40992;BME280;29633;49.168;9.848;2023-03-04T03:03:05;97277.53;;;5.47;52.06
40992;BME280;29633;49.168;9.848;2023-03-04T03:05:32;97276.03;;;5.43;51.98
40992;BME280;29633;49.168;9.848;2023-03-04T03:07:58;97274.47;;;5.41;52.18
40992;BME280;29633;49.168;9.848;2023-03-04T03:10:24;97273.69;;;5.39;52.15
40992;BME280;29633;49.168;9.848;2023-03-04T03:12:50;97279.00;;;5.36;52.18
40992;BME280;29633;49.168;9.848;2023-03-04T03:15:15;97281.56;;;5.36;52.10
40992;BME280;29633;49.168;9.848;2023-03-04T03:17:41;97275.84;;;5.31;52.24
40992;BME280;29633;49.168;9.848;2023-03-04T03:20:08;97281.16;;;5.28;52.02
40992;BME280;29633;49.168;9.848;2023-03-04T03:22:35;97274.56;;;5.22;52.42
40992;BME280;29633;49.168;9.848;2023-03-04T03:25:00;97271.34;;;5.19;52.30
40992;BME280;29633;49.168;9.848;2023-03-04T03:27:26;97281.78;;;5.16;52.18
40992;BME280;29633;49.168;9.848;2023-03-04T03:29:52;97280.25;;;5.12;52.31
40992;BME280;29633;49.168;9.848;2023-03-04T03:32:17;97276.84;;;5.11;52.23
40992;BME280;29633;49.168;9.848;2023-03-04T03:34:43;97275.28;;;5.09;52.33
40992;BME280;29633;49.168;9.848;2023-03-04T03:37:08;97268.47;;;5.08;52.19
40992;BME280;29633;49.168;9.848;2023-03-04T03:39:34;97266.91;;;5.05;52.24
40992;BME280;29633;49.168;9.848;2023-03-04T03:42:00;97281.53;;;5.03;52.24
40992;BME280;29633;49.168;9.848;2023-03-04T03:44:25;97269.78;;;4.99;52.09
40992;BME280;29633;49.168;9.848;2023-03-04T03:46:51;97273.25;;;4.98;52.06
40992;BME280;29633;49.168;9.848;2023-03-04T03:49:16;97270.84;;;4.95;52.24
40992;BME280;29633;49.168;9.848;2023-03-04T03:51:42;97270.84;;;4.95;52.07
40992;BME280;29633;49.168;9.848;2023-03-04T03:54:08;97260.69;;;4.92;52.19
40992;BME280;29633;49.168;9.848;2023-03-04T03:56:34;97267.72;;;4.88;52.17
40992;BME280;29633;49.168;9.848;2023-03-04T03:58:59;97274.84;;;4.83;52.19
40992;BME280;29633;49.168;9.848;2023-03-04T04:01:25;97271.50;;;4.81;51.87
40992;BME280;29633;49.168;9.848;2023-03-04T04:03:51;97276.75;;;4.80;52.16
40992;BME280;29633;49.168;9.848;2023-03-04T04:06:16;97279.38;;;4.78;52.11
40992;BME280;29633;49.168;9.848;2023-03-04T04:08:42;97275.97;;;4.78;52.04
40992;BME280;29633;49.168;9.848;2023-03-04T04:11:11;97280.50;;;4.73;52.22
40992;BME280;29633;49.168;9.848;2023-03-04T04:13:37;97277.41;;;4.66;52.13
40992;BME280;29633;49.168;9.848;2023-03-04T04:16:04;97277.53;;;4.63;52.15
40992;BME280;29633;49.168;9.848;2023-03-04T04:18:30;97280.25;;;4.60;52.44
40992;BME280;29633;49.168;9.848;2023-03-04T04:20:55;97281.19;;;4.59;52.30
40992;BME280;29633;49.168;9.848;2023-03-04T04:23:21;97286.38;;;4.58;52.35
40992;BME280;29633;49.168;9.848;2023-03-04T04:25:47;97279.53;;;4.58;52.26
40992;BME280;29633;49.168;9.848;2023-03-04T04:28:12;97283.06;;;4.56;52.28
40992;BME280;29633;49.168;9.848;2023-03-04T04:30:38;97282.31;;;4.54;52.02
40992;BME280;29633;49.168;9.848;2023-03-04T04:33:04;97289.38;;;4.48;52.33
40992;BME280;29633;49.168;9.848;2023-03-04T04:35:31;97293.72;;;4.48;52.24
40992;BME280;29633;49.168;9.848;2023-03-04T04:37:57;97289.78;;;4.41;52.37
40992;BME280;29633;49.168;9.848;2023-03-04T04:40:23;97297.38;;;4.42;52.44
40992;BME280;29633;49.168;9.848;2023-03-04T04:42:48;97294.66;;;4.45;52.41
40992;BME280;29633;49.168;9.848;2023-03-04T04:45:14;97290.38;;;4.46;52.22
40992;BME280;29633;49.168;9.848;2023-03-04T04:47:40;97286.91;;;4.47;52.31
40992;BME280;29633;49.168;9.848;2023-03-04T04:50:06;97291.22;;;4.46;52.46
40992;BME280;29633;49.168;9.848;2023-03-04T04:52:31;97286.97;;;4.45;52.43
40992;BME280;29633;49.168;9.848;2023-03-04T04:54:57;97288.69;;;4.45;52.63
40992;BME280;29633;49.168;9.848;2023-03-04T04:57:23;97278.59;;;4.42;52.36
40992;BME280;29633;49.168;9.848;2023-03-04T04:59:48;97286.38;;;4.40;52.54
40992;BME280;29633;49.168;9.848;2023-03-04T05:02:16;97290.59;;;4.41;52.30
40992;BME280;29633;49.168;9.848;2023-03-04T05:04:42;97292.34;;;4.41;52.54
40992;BME280;29633;49.168;9.848;2023-03-04T05:07:07;97294.97;;;4.39;52.56
40992;BME280;29633;49.168;9.848;2023-03-04T05:09:33;97299.25;;;4.39;52.38
40992;BME280;29633;49.168;9.848;2023-03-04T05:12:00;97300.25;;;4.36;52.49
40992;BME280;29633;49.168;9.848;2023-03-04T05:14:26;97304.56;;;4.36;52.73
40992;BME280;29633;49.168;9.848;2023-03-04T05:16:51;97306.13;;;4.38;52.51
40992;BME280;29633;49.168;9.848;2023-03-04T05:19:18;97303.41;;;4.41;52.71
40992;BME280;29633;49.168;9.848;2023-03-04T05:21:44;97305.91;;;4.43;52.56
40992;BME280;29633;49.168;9.848;2023-03-04T05:24:09;97299.13;;;4.42;52.68
40992;BME280;29633;49.168;9.848;2023-03-04T05:26:35;97307.59;;;4.44;52.84
40992;BME280;29633;49.168;9.848;2023-03-04T05:29:01;97306.53;;;4.48;52.64
40992;BME280;29633;49.168;9.848;2023-03-04T05:31:27;97310.69;;;4.51;52.66
40992;BME280;29633;49.168;9.848;2023-03-04T05:33:52;97311.31;;;4.56;52.64
40992;BME280;29633;49.168;9.848;2023-03-04T05:36:18;97303.38;;;4.60;52.85
40992;BME280;29633;49.168;9.848;2023-03-04T05:38:44;97308.44;;;4.62;52.95
40992;BME280;29633;49.168;9.848;2023-03-04T05:41:09;97306.56;;;4.65;52.97
40992;BME280;29633;49.168;9.848;2023-03-04T05:43:35;97309.19;;;4.64;52.92
40992;BME280;29633;49.168;9.848;2023-03-04T05:46:03;97309.34;;;4.61;52.94
40992;BME280;29633;49.168;9.848;2023-03-04T05:48:29;97312.75;;;4.61;53.10
40992;BME280;29633;49.168;9.848;2023-03-04T05:50:55;97314.47;;;4.61;52.98
40992;BME280;29633;49.168;9.848;2023-03-04T05:53:22;97312.53;;;4.66;53.04
40992;BME280;29633;49.168;9.848;2023-03-04T05:55:48;97313.22;;;4.69;53.21
40992;BME280;29633;49.168;9.848;2023-03-04T05:58:14;97315.63;;;4.72;53.09
40992;BME280;29633;49.168;9.848;2023-03-04T06:00:40;97318.13;;;4.74;53.34
40992;BME280;29633;49.168;9.848;2023-03-04T06:03:06;97321.66;;;4.71;53.20
40992;BME280;29633;49.168;9.848;2023-03-04T06:05:31;97328.41;;;4.74;53.19
40992;BME280;29633;49.168;9.848;2023-03-04T06:07:57;97329.16;;;4.76;53.11
40992;BME280;29633;49.168;9.848;2023-03-04T06:10:23;97329.84;;;4.79;53.17
40992;BME280;29633;49.168;9.848;2023-03-04T06:12:48;97335.72;;;4.81;53.41
40992;BME280;29633;49.168;9.848;2023-03-04T06:15:14;97333.16;;;4.81;53.50
40992;BME280;29633;49.168;9.848;2023-03-04T06:17:40;97328.63;;;4.86;53.37
40992;BME280;29633;49.168;9.848;2023-03-04T06:20:07;97338.84;;;4.88;53.43
40992;BME280;29633;49.168;9.848;2023-03-04T06:22:33;97344.72;;;4.90;53.45
40992;BME280;29633;49.168;9.848;2023-03-04T06:24:59;97343.69;;;4.94;53.46
40992;BME280;29633;49.168;9.848;2023-03-04T06:27:25;97346.19;;;4.95;53.41
40992;BME280;29633;49.168;9.848;2023-03-04T06:29:51;97343.47;;;4.99;53.41
40992;BME280;29633;49.168;9.848;2023-03-04T06:32:17;97346.72;;;5.02;53.31
40992;BME280;29633;49.168;9.848;2023-03-04T06:34:42;97354.31;;;5.04;53.38
40992;BME280;29633;49.168;9.848;2023-03-04T06:37:08;97349.28;;;5.02;53.38
40992;BME280;29633;49.168;9.848;2023-03-04T06:39:33;97357.94;;;5.00;53.62
40992;BME280;29633;49.168;9.848;2023-03-04T06:41:59;97356.47;;;4.95;53.49
40992;BME280;29633;49.168;9.848;2023-03-04T06:44:25;97360.59;;;4.98;53.79
40992;BME280;29633;49.168;9.848;2023-03-04T06:46:50;97358.88;;;4.99;53.46
40992;BME280;29633;49.168;9.848;2023-03-04T06:49:16;97358.72;;;5.02;53.72
40992;BME280;29633;49.168;9.848;2023-03-04T06:51:42;97369.72;;;5.04;53.61
40992;BME280;29633;49.168;9.848;2023-03-04T06:54:08;97360.28;;;5.04;53.49
40992;BME280;29633;49.168;9.848;2023-03-04T06:56:34;97366.13;;;5.08;53.54
40992;BME280;29633;49.168;9.848;2023-03-04T06:58:59;97371.09;;;5.11;53.56
40992;BME280;29633;49.168;9.848;2023-03-04T07:01:26;97366.63;;;5.14;53.23
40992;BME280;29633;49.168;9.848;2023-03-04T07:03:52;97372.63;;;5.15;53.66
40992;BME280;29633;49.168;9.848;2023-03-04T07:06:21;97375.19;;;5.15;53.40
40992;BME280;29633;49.168;9.848;2023-03-04T07:08:47;97367.31;;;5.18;53.63
40992;BME280;29633;49.168;9.848;2023-03-04T07:11:13;97363.69;;;5.22;53.65
40992;BME280;29633;49.168;9.848;2023-03-04T07:13:39;97373.81;;;5.25;53.56
40992;BME280;29633;49.168;9.848;2023-03-04T07:16:10;97376.47;;;5.23;53.63
40992;BME280;29633;49.168;9.848;2023-03-04T07:18:36;97366.94;;;5.25;53.64
40992;BME280;29633;49.168;9.848;2023-03-04T07:21:03;97373.69;;;5.28;53.61
40992;BME280;29633;49.168;9.848;2023-03-04T07:23:29;97382.16;;;5.30;53.42
40992;BME280;29633;49.168;9.848;2023-03-04T07:25:54;97371.03;;;5.29;53.36
40992;BME280;29633;49.168;9.848;2023-03-04T07:28:20;97372.59;;;5.32;53.61
40992;BME280;29633;49.168;9.848;2023-03-04T07:30:45;97386.44;;;5.29;53.54
40992;BME280;29633;49.168;9.848;2023-03-04T07:33:12;97373.59;;;5.29;53.43
40992;BME280;29633;49.168;9.848;2023-03-04T07:35:38;97378.06;;;5.26;53.61
40992;BME280;29633;49.168;9.848;2023-03-04T07:38:04;97379.06;;;5.23;53.81
40992;BME280;29633;49.168;9.848;2023-03-04T07:40:30;97385.94;;;5.23;53.66
40992;BME280;29633;49.168;9.848;2023-03-04T07:42:55;97378.22;;;5.23;53.72
40992;BME280;29633;49.168;9.848;2023-03-04T07:45:22;97384.09;;;5.25;53.75
40992;BME280;29633;49.168;9.848;2023-03-04T07:47:47;97380.63;;;5.26;54.02
40992;BME280;29633;49.168;9.848;2023-03-04T07:50:13;97383.81;;;5.31;53.80
40992;BME280;29633;49.168;9.848;2023-03-04T07:52:44;97388.97;;;5.31;53.96
40992;BME280;29633;49.168;9.848;2023-03-04T07:55:11;97389.25;;;5.25;54.15
40992;BME280;29633;49.168;9.848;2023-03-04T07:57:38;97396.16;;;5.24;54.05
40992;BME280;29633;49.168;9.848;2023-03-04T08:00:04;97396.72;;;5.29;54.16
40992;BME280;29633;49.168;9.848;2023-03-04T08:02:30;97401.72;;;5.32;54.19
40992;BME280;29633;49.168;9.848;2023-03-04T08:04:56;97397.25;;;5.36;54.08
40992;BME280;29633;49.168;9.848;2023-03-04T08:07:22;97401.50;;;5.37;54.04
40992;BME280;29633;49.168;9.848;2023-03-04T08:09:47;97402.13;;;5.42;54.18
40992;BME280;29633;49.168;9.848;2023-03-04T08:12:13;97399.38;;;5.45;53.96
40992;BME280;29633;49.168;9.848;2023-03-04T08:14:39;97405.53;;;5.42;54.16
40992;BME280;29633;49.168;9.848;2023-03-04T08:17:05;97409.56;;;5.46;54.09
40992;BME280;29633;49.168;9.848;2023-03-04T08:19:30;97395.91;;;5.46;54.17
40992;BME280;29633;49.168;9.848;2023-03-04T08:21:56;97401.97;;;5.45;54.24
40992;BME280;29633;49.168;9.848;2023-03-04T08:24:21;97398.47;;;5.46;54.32
40992;BME280;29633;49.168;9.848;2023-03-04T08:26:48;97401.72;;;5.50;54.41
40992;BME280;29633;49.168;9.848;2023-03-04T08:29:17;97393.53;;;5.59;54.45
40992;BME280;29633;49.168;9.848;2023-03-04T08:31:44;97402.31;;;5.55;54.34
40992;BME280;29633;49.168;9.848;2023-03-04T08:34:11;97401.47;;;5.54;54.55
40992;BME280;29633;49.168;9.848;2023-03-04T08:36:42;97400.63;;;5.54;54.36
40992;BME280;29633;49.168;9.848;2023-03-04T08:39:10;97405.56;;;5.58;54.45
40992;BME280;29633;49.168;9.848;2023-03-04T08:41:36;97403.66;;;5.62;54.31
40992;BME280;29633;49.168;9.848;2023-03-04T08:44:02;97404.56;;;5.61;54.48
40992;BME280;29633;49.168;9.848;2023-03-04T08:46:28;97407.97;;;5.61;54.43
40992;BME280;29633;49.168;9.848;2023-03-04T08:48:53;97406.84;;;5.67;54.39
40992;BME280;29633;49.168;9.848;2023-03-04T08:51:19;97411.16;;;5.66;54.47
40992;BME280;29633;49.168;9.848;2023-03-04T08:53:45;97410.16;;;5.69;54.32
40992;BME280;29633;49.168;9.848;2023-03-04T08:56:11;97411.84;;;5.70;54.56
40992;BME280;29633;49.168;9.848;2023-03-04T08:58:37;97409.41;;;5.67;54.47
40992;BME280;29633;49.168;9.848;2023-03-04T09:01:03;97408.59;;;5.66;54.42
40992;BME280;29633;49.168;9.848;2023-03-04T09:03:29;97416.25;;;5.68;54.57
40992;BME280;29633;49.168;9.848;2023-03-04T09:05:54;97406.63;;;5.71;54.52
40992;BME280;29633;49.168;9.848;2023-03-04T09:08:20;97410.38;;;5.81;54.41
40992;BME280;29633;49.168;9.848;2023-03-04T09:10:46;97417.81;;;5.87;54.45
40992;BME280;29633;49.168;9.848;2023-03-04T09:13:12;97416.97;;;5.87;54.46
40992;BME280;29633;49.168;9.848;2023-03-04T09:15:48;97410.84;;;5.89;54.32
40992;BME280;29633;49.168;9.848;2023-03-04T09:18:16;97406.53;;;5.90;54.54
40992;BME280;29633;49.168;9.848;2023-03-04T09:20:43;97411.91;;;5.85;54.64
40992;BME280;29633;49.168;9.848;2023-03-04T09:23:09;97405.25;;;5.81;54.78
40992;BME280;29633;49.168;9.848;2023-03-04T09:25:36;97401.91;;;5.79;54.63
40992;BME280;29633;49.168;9.848;2023-03-04T09:28:02;97402.84;;;5.78;54.78
40992;BME280;29633;49.168;9.848;2023-03-04T09:30:28;97405.41;;;5.78;54.96
40992;BME280;29633;49.168;9.848;2023-03-04T09:32:54;97412.78;;;5.84;54.80
40992;BME280;29633;49.168;9.848;2023-03-04T09:35:20;97405.06;;;5.84;54.93
40992;BME280;29633;49.168;9.848;2023-03-04T09:37:45;97409.38;;;5.84;54.79
40992;BME280;29633;49.168;9.848;2023-03-04T09:40:16;97415.16;;;5.89;54.74
40992;BME280;29633;49.168;9.848;2023-03-04T09:42:46;97411.28;;;5.98;54.75
40992;BME280;29633;49.168;9.848;2023-03-04T09:45:16;97412.78;;;6.02;54.82
40992;BME280;29633;49.168;9.848;2023-03-04T09:47:43;97414.13;;;6.09;54.75
40992;BME280;29633;49.168;9.848;2023-03-04T09:50:10;97415.63;;;6.13;54.74
40992;BME280;29633;49.168;9.848;2023-03-04T09:55:21;97415.91;;;6.24;54.64
40992;BME280;29633;49.168;9.848;2023-03-04T09:57:54;97419.38;;;6.23;54.70
40992;BME280;29633;49.168;9.848;2023-03-04T10:06:05;97427.53;;;6.31;54.71
40992;BME280;29633;49.168;9.848;2023-03-04T10:21:44;97422.56;;;6.28;54.79
40992;BME280;29633;49.168;9.848;2023-03-04T10:24:15;97424.97;;;6.31;54.84
40992;BME280;29633;49.168;9.848;2023-03-04T10:26:47;97417.84;;;6.36;54.75
40992;BME280;29633;49.168;9.848;2023-03-04T10:29:17;97416.75;;;6.40;54.90
40992;BME280;29633;49.168;9.848;2023-03-04T10:31:43;97412.19;;;6.45;54.70
40992;BME280;29633;49.168;9.848;2023-03-04T10:34:11;97411.09;;;6.49;54.68
40992;BME280;29633;49.168;9.848;2023-03-04T10:36:58;97403.53;;;6.46;54.79
40992;BME280;29633;49.168;9.848;2023-03-04T10:39:45;97408.09;;;6.41;54.82
40992;BME280;29633;49.168;9.848;2023-03-04T10:44:50;97413.34;;;6.39;54.96
40992;BME280;29633;49.168;9.848;2023-03-04T10:47:16;97407.38;;;6.39;54.99
40992;BME280;29633;49.168;9.848;2023-03-04T10:49:53;97413.34;;;6.39;54.84
40992;BME280;29633;49.168;9.848;2023-03-04T10:52:27;97408.44;;;6.35;55.08
40992;BME280;29633;49.168;9.848;2023-03-04T10:55:01;97409.34;;;6.34;55.25
40992;BME280;29633;49.168;9.848;2023-03-04T10:57:36;97412.59;;;6.37;55.19
40992;BME280;29633;49.168;9.848;2023-03-04T11:00:34;97410.50;;;6.44;54.90
40992;BME280;29633;49.168;9.848;2023-03-04T11:03:27;97413.00;;;6.46;54.88
40992;BME280;29633;49.168;9.848;2023-03-04T11:06:21;97411.28;;;6.46;54.98
40992;BME280;29633;49.168;9.848;2023-03-04T11:08:55;97418.22;;;6.44;54.94
40992;BME280;29633;49.168;9.848;2023-03-04T11:11:38;97411.50;;;6.41;55.01
40992;BME280;29633;49.168;9.848;2023-03-04T11:16:58;97410.84;;;6.38;55.04
40992;BME280;29633;49.168;9.848;2023-03-04T11:19:36;97405.78;;;6.36;54.98
40992;BME280;29633;49.168;9.848;2023-03-04T11:22:02;97401.22;;;6.41;55.08
40992;BME280;29633;49.168;9.848;2023-03-04T11:24:29;97391.91;;;6.39;55.04
40992;BME280;29633;49.168;9.848;2023-03-04T11:26:58;97393.59;;;6.40;54.97
40992;BME280;29633;49.168;9.848;2023-03-04T11:34:49;97389.59;;;6.50;55.12
40992;BME280;29633;49.168;9.848;2023-03-04T11:37:35;97384.50;;;6.49;54.96
40992;BME280;29633;49.168;9.848;2023-03-04T11:45:16;97378.59;;;6.62;54.87
40992;BME280;29633;49.168;9.848;2023-03-04T12:01:38;97356.25;;;6.78;55.07
40992;BME280;29633;49.168;9.848;2023-03-04T12:07:30;97345.69;;;6.67;55.07
40992;BME280;29633;49.168;9.848;2023-03-04T12:13:27;97330.78;;;6.58;55.07
40992;BME280;29633;49.168;9.848;2023-03-04T12:21:53;97323.44;;;6.66;55.08
40992;BME280;29633;49.168;9.848;2023-03-04T12:24:37;97325.44;;;6.61;55.11
40992;BME280;29633;49.168;9.848;2023-03-04T12:27:31;97327.25;;;6.59;55.14
40992;BME280;29633;49.168;9.848;2023-03-04T12:36:15;97322.47;;;6.53;55.51
40992;BME280;29633;49.168;9.848;2023-03-04T12:39:10;97313.97;;;6.51;55.31
40992;BME280;29633;49.168;9.848;2023-03-04T12:44:19;97315.47;;;6.55;55.18
40992;BME280;29633;49.168;9.848;2023-03-04T12:47:26;97317.97;;;6.57;55.27
40992;BME280;29633;49.168;9.848;2023-03-04T12:50:13;97308.91;;;6.65;55.11
40992;BME280;29633;49.168;9.848;2023-03-04T12:53:08;97307.06;;;6.67;55.15
40992;BME280;29633;49.168;9.848;2023-03-04T12:55:41;97307.66;;;6.72;55.07
40992;BME280;29633;49.168;9.848;2023-03-04T12:58:39;97301.56;;;6.73;55.09
40992;BME280;29633;49.168;9.848;2023-03-04T13:03:50;97296.41;;;6.73;55.06
40992;BME280;29633;49.168;9.848;2023-03-04T13:06:34;97298.97;;;6.73;55.02
40992;BME280;29633;49.168;9.848;2023-03-04T13:09:22;97299.81;;;6.74;55.26
40992;BME280;29633;49.168;9.848;2023-03-04T13:11:55;97293.75;;;6.75;54.99
40992;BME280;29633;49.168;9.848;2023-03-04T13:14:30;97288.78;;;6.72;55.28
40992;BME280;29633;49.168;9.848;2023-03-04T13:20:35;97289.19;;;6.80;55.08
40992;BME280;29633;49.168;9.848;2023-03-04T13:25:41;97286.25;;;6.86;55.11
40992;BME280;29633;49.168;9.848;2023-03-04T13:43:37;97294.38;;;6.94;55.13
40992;BME280;29633;49.168;9.848;2023-03-04T13:51:34;97289.84;;;6.83;55.16
40992;BME280;29633;49.168;9.848;2023-03-04T13:54:16;97291.22;;;6.89;55.25
40992;BME280;29633;49.168;9.848;2023-03-04T13:57:19;97289.28;;;6.92;55.15
40992;BME280;29633;49.168;9.848;2023-03-04T13:59:49;97288.28;;;6.95;55.20
40992;BME280;29633;49.168;9.848;2023-03-04T14:02:20;97290.78;;;6.97;55.26
40992;BME280;29633;49.168;9.848;2023-03-04T14:07:28;97284.41;;;7.02;55.18
40992;BME280;29633;49.168;9.848;2023-03-04T14:12:19;97277.19;;;7.09;55.16
40992;BME280;29633;49.168;9.848;2023-03-04T14:14:51;97277.84;;;7.12;55.11
40992;BME280;29633;49.168;9.848;2023-03-04T14:17:32;97274.44;;;7.12;55.20
40992;BME280;29633;49.168;9.848;2023-03-04T14:20:01;97273.03;;;7.06;55.24
40992;BME280;29633;49.168;9.848;2023-03-04T14:22:36;97270.53;;;7.05;55.24
40992;BME280;29633;49.168;9.848;2023-03-04T14:25:45;97272.19;;;7.06;55.14
40992;BME280;29633;49.168;9.848;2023-03-04T14:28:15;97261.72;;;7.09;55.22
40992;BME280;29633;49.168;9.848;2023-03-04T14:30:43;97264.44;;;7.06;55.16
40992;BME280;29633;49.168;9.848;2023-03-04T14:33:19;97258.38;;;7.07;55.17
40992;BME280;29633;49.168;9.848;2023-03-04T14:35:51;97256.66;;;7.07;55.30
40992;BME280;29633;49.168;9.848;2023-03-04T14:38:27;97255.63;;;7.10;55.28
40992;BME280;29633;49.168;9.848;2023-03-04T14:41:05;97253.16;;;7.08;55.26
40992;BME280;29633;49.168;9.848;2023-03-04T14:43:35;97247.88;;;7.10;55.27
40992;BME280;29633;49.168;9.848;2023-03-04T14:46:04;97242.66;;;7.11;55.31
40992;BME280;29633;49.168;9.848;2023-03-04T14:48:36;97239.16;;;7.12;55.22
40992;BME280;29633;49.168;9.848;2023-03-04T14:51:02;97233.38;;;7.09;55.34
40992;BME280;29633;49.168;9.848;2023-03-04T14:53:29;97225.53;;;7.10;55.27
40992;BME280;29633;49.168;9.848;2023-03-04T14:55:56;97235.84;;;7.10;55.29
40992;BME280;29633;49.168;9.848;2023-03-04T14:58:26;97237.56;;;7.10;55.36
40992;BME280;29633;49.168;9.848;2023-03-04T15:01:22;97240.34;;;7.07;55.23
40992;BME280;29633;49.168;9.848;2023-03-04T15:06:26;97235.84;;;7.10;55.18
40992;BME280;29633;49.168;9.848;2023-03-04T15:09:03;97238.59;;;7.07;55.17
40992;BME280;29633;49.168;9.848;2023-03-04T15:11:38;97229.13;;;7.08;55.27
40992;BME280;29633;49.168;9.848;2023-03-04T15:22:34;97229.44;;;6.87;55.50